sensor_id;sensor_type;location;lat;lon;timestamp;P1;durP1;ratioP1;P2;durP2;ratioP2
75548;SDS011;64133;56.002;37.208;2023-06-22T00:04:08;8.40;;;3.15;;
75548;SDS011;64133;56.002;37.208;2023-06-22T00:09:13;7.12;;;2.75;;
75548;SDS011;64133;56.002;37.208;2023-06-22T00:14:18;8.45;;;2.58;;
75548;SDS011;64133;56.002;37.208;2023-06-22T00:19:23;10.70;;;3.60;;
75548;SDS011;64133;56.002;37.208;2023-06-22T00:24:28;6.53;;;2.87;;
75548;SDS011;64133;56.002;37.208;2023-06-22T00:29:33;4.33;;;2.67;;
75548;SDS011;64133;56.002;37.208;2023-06-22T00:34:38;4.83;;;2.77;;
75548;SDS011;64133;56.002;37.208;2023-06-22T00:39:43;6.33;;;2.67;;
75548;SDS011;64133;56.002;37.208;2023-06-22T00:44:48;6.85;;;2.67;;
75548;SDS011;64133;56.002;37.208;2023-06-22T00:49:53;7.40;;;3.30;;
75548;SDS011;64133;56.002;37.208;2023-06-22T00:54:58;8.43;;;3.55;;
75548;SDS011;64133;56.002;37.208;2023-06-22T01:00:03;7.60;;;2.77;;
75548;SDS011;64133;56.002;37.208;2023-06-22T01:05:09;5.85;;;2.95;;
75548;SDS011;64133;56.002;37.208;2023-06-22T01:10:16;9.08;;;3.47;;
75548;SDS011;64133;56.002;37.208;2023-06-22T01:15:20;5.22;;;2.80;;
75548;SDS011;64133;56.002;37.208;2023-06-22T01:20:25;4.28;;;3.02;;
75548;SDS011;64133;56.002;37.208;2023-06-22T01:25:31;6.87;;;2.85;;
75548;SDS011;64133;56.002;37.208;2023-06-22T01:30:36;7.45;;;3.00;;
75548;SDS011;64133;56.002;37.208;2023-06-22T01:35:41;5.30;;;3.00;;
75548;SDS011;64133;56.002;37.208;2023-06-22T01:40:46;6.60;;;3.45;;
75548;SDS011;64133;56.002;37.208;2023-06-22T01:45:51;8.40;;;3.05;;
75548;SDS011;64133;56.002;37.208;2023-06-22T01:50:55;6.10;;;3.08;;
75548;SDS011;64133;56.002;37.208;2023-06-22T01:56:00;4.95;;;2.50;;
75548;SDS011;64133;56.002;37.208;2023-06-22T02:01:07;6.42;;;3.25;;
75548;SDS011;64133;56.002;37.208;2023-06-22T02:06:13;10.55;;;3.30;;
75548;SDS011;64133;56.002;37.208;2023-06-22T02:11:16;7.40;;;3.65;;
75548;SDS011;64133;56.002;37.208;2023-06-22T02:16:21;7.20;;;3.72;;
75548;SDS011;64133;56.002;37.208;2023-06-22T02:21:26;10.82;;;4.00;;
75548;SDS011;64133;56.002;37.208;2023-06-22T02:26:33;6.45;;;3.15;;
75548;SDS011;64133;56.002;37.208;2023-06-22T02:31:37;8.55;;;3.67;;
75548;SDS011;64133;56.002;37.208;2023-06-22T02:36:42;7.10;;;4.03;;
75548;SDS011;64133;56.002;37.208;2023-06-22T02:41:48;6.55;;;3.92;;
75548;SDS011;64133;56.002;37.208;2023-06-22T02:46:53;11.48;;;4.20;;
75548;SDS011;64133;56.002;37.208;2023-06-22T02:51:58;7.78;;;3.87;;
75548;SDS011;64133;56.002;37.208;2023-06-22T02:57:03;8.08;;;3.55;;
75548;SDS011;64133;56.002;37.208;2023-06-22T03:02:09;14.15;;;3.37;;
75548;SDS011;64133;56.002;37.208;2023-06-22T03:07:14;7.70;;;3.40;;
75548;SDS011;64133;56.002;37.208;2023-06-22T03:12:19;7.95;;;4.28;;
75548;SDS011;64133;56.002;37.208;2023-06-22T03:17:27;9.80;;;3.62;;
75548;SDS011;64133;56.002;37.208;2023-06-22T03:22:32;12.70;;;4.10;;
75548;SDS011;64133;56.002;37.208;2023-06-22T03:27:37;8.85;;;4.03;;
75548;SDS011;64133;56.002;37.208;2023-06-22T03:32:42;9.85;;;3.40;;
75548;SDS011;64133;56.002;37.208;2023-06-22T03:37:47;7.40;;;3.30;;
75548;SDS011;64133;56.002;37.208;2023-06-22T03:42:52;7.12;;;3.27;;
75548;SDS011;64133;56.002;37.208;2023-06-22T03:47:57;7.22;;;3.25;;
75548;SDS011;64133;56.002;37.208;2023-06-22T03:53:02;8.03;;;2.90;;
75548;SDS011;64133;56.002;37.208;2023-06-22T03:58:06;6.00;;;3.02;;
75548;SDS011;64133;56.002;37.208;2023-06-22T04:03:11;13.18;;;3.67;;
75548;SDS011;64133;56.002;37.208;2023-06-22T04:08:16;5.58;;;2.98;;
75548;SDS011;64133;56.002;37.208;2023-06-22T04:13:24;5.65;;;3.20;;
75548;SDS011;64133;56.002;37.208;2023-06-22T04:18:29;7.83;;;3.10;;
75548;SDS011;64133;56.002;37.208;2023-06-22T04:23:34;6.20;;;3.22;;
75548;SDS011;64133;56.002;37.208;2023-06-22T04:28:39;5.87;;;2.85;;
75548;SDS011;64133;56.002;37.208;2023-06-22T04:33:44;6.35;;;2.37;;
75548;SDS011;64133;56.002;37.208;2023-06-22T04:38:48;5.37;;;2.30;;
75548;SDS011;64133;56.002;37.208;2023-06-22T04:43:53;4.25;;;2.15;;
75548;SDS011;64133;56.002;37.208;2023-06-22T04:48:58;7.22;;;2.80;;
75548;SDS011;64133;56.002;37.208;2023-06-22T04:54:03;4.97;;;2.30;;
75548;SDS011;64133;56.002;37.208;2023-06-22T04:59:08;4.40;;;2.30;;
75548;SDS011;64133;56.002;37.208;2023-06-22T05:04:13;4.95;;;2.42;;
75548;SDS011;64133;56.002;37.208;2023-06-22T05:09:18;7.40;;;2.70;;
75548;SDS011;64133;56.002;37.208;2023-06-22T05:14:23;4.22;;;2.33;;
75548;SDS011;64133;56.002;37.208;2023-06-22T05:19:28;6.00;;;2.40;;
75548;SDS011;64133;56.002;37.208;2023-06-22T05:24:34;5.33;;;2.47;;
75548;SDS011;64133;56.002;37.208;2023-06-22T05:29:39;8.70;;;2.35;;
75548;SDS011;64133;56.002;37.208;2023-06-22T05:34:44;4.80;;;2.25;;
75548;SDS011;64133;56.002;37.208;2023-06-22T05:39:49;6.17;;;2.58;;
75548;SDS011;64133;56.002;37.208;2023-06-22T05:44:54;6.42;;;2.70;;
75548;SDS011;64133;56.002;37.208;2023-06-22T05:49:59;5.17;;;2.30;;
75548;SDS011;64133;56.002;37.208;2023-06-22T05:55:04;4.92;;;2.15;;
75548;SDS011;64133;56.002;37.208;2023-06-22T06:00:11;4.53;;;2.55;;
75548;SDS011;64133;56.002;37.208;2023-06-22T06:05:16;3.52;;;2.00;;
75548;SDS011;64133;56.002;37.208;2023-06-22T06:10:21;4.03;;;1.87;;
75548;SDS011;64133;56.002;37.208;2023-06-22T06:15:26;3.58;;;1.60;;
75548;SDS011;64133;56.002;37.208;2023-06-22T06:20:32;4.67;;;2.05;;
75548;SDS011;64133;56.002;37.208;2023-06-22T06:25:36;2.95;;;1.82;;
75548;SDS011;64133;56.002;37.208;2023-06-22T06:30:41;3.30;;;1.92;;
75548;SDS011;64133;56.002;37.208;2023-06-22T06:35:46;4.83;;;2.00;;
75548;SDS011;64133;56.002;37.208;2023-06-22T06:40:51;3.85;;;2.22;;
75548;SDS011;64133;56.002;37.208;2023-06-22T06:45:56;3.95;;;1.70;;
75548;SDS011;64133;56.002;37.208;2023-06-22T06:51:01;3.75;;;1.90;;
75548;SDS011;64133;56.002;37.208;2023-06-22T06:56:06;3.62;;;1.80;;
75548;SDS011;64133;56.002;37.208;2023-06-22T07:01:12;3.17;;;1.67;;
75548;SDS011;64133;56.002;37.208;2023-06-22T07:06:17;5.80;;;1.90;;
75548;SDS011;64133;56.002;37.208;2023-06-22T07:11:22;4.10;;;1.80;;
75548;SDS011;64133;56.002;37.208;2023-06-22T07:16:27;4.78;;;1.85;;
75548;SDS011;64133;56.002;37.208;2023-06-22T07:21:31;5.05;;;1.95;;
75548;SDS011;64133;56.002;37.208;2023-06-22T07:26:37;3.15;;;1.75;;
75548;SDS011;64133;56.002;37.208;2023-06-22T07:31:41;4.92;;;1.98;;
75548;SDS011;64133;56.002;37.208;2023-06-22T07:36:47;4.78;;;2.10;;
75548;SDS011;64133;56.002;37.208;2023-06-22T07:41:52;6.87;;;1.87;;
75548;SDS011;64133;56.002;37.208;2023-06-22T07:46:56;6.10;;;1.72;;
75548;SDS011;64133;56.002;37.208;2023-06-22T07:52:01;6.30;;;2.45;;
75548;SDS011;64133;56.002;37.208;2023-06-22T07:57:07;4.10;;;2.30;;
75548;SDS011;64133;56.002;37.208;2023-06-22T08:02:12;6.12;;;1.95;;
75548;SDS011;64133;56.002;37.208;2023-06-22T08:07:17;4.95;;;2.27;;
75548;SDS011;64133;56.002;37.208;2023-06-22T08:12:22;3.42;;;2.08;;
75548;SDS011;64133;56.002;37.208;2023-06-22T08:17:27;7.90;;;2.40;;
75548;SDS011;64133;56.002;37.208;2023-06-22T08:22:32;3.25;;;1.98;;
75548;SDS011;64133;56.002;37.208;2023-06-22T08:27:37;4.15;;;2.15;;
75548;SDS011;64133;56.002;37.208;2023-06-22T08:32:42;10.58;;;2.47;;
75548;SDS011;64133;56.002;37.208;2023-06-22T08:37:47;5.08;;;2.20;;
75548;SDS011;64133;56.002;37.208;2023-06-22T08:42:55;3.92;;;2.20;;
75548;SDS011;64133;56.002;37.208;2023-06-22T08:48:00;7.05;;;2.60;;
75548;SDS011;64133;56.002;37.208;2023-06-22T08:53:05;5.03;;;2.15;;
75548;SDS011;64133;56.002;37.208;2023-06-22T08:58:10;4.65;;;2.27;;
75548;SDS011;64133;56.002;37.208;2023-06-22T09:03:15;5.15;;;2.20;;
75548;SDS011;64133;56.002;37.208;2023-06-22T09:08:20;3.40;;;2.27;;
75548;SDS011;64133;56.002;37.208;2023-06-22T09:13:25;3.00;;;2.05;;
75548;SDS011;64133;56.002;37.208;2023-06-22T09:18:30;6.92;;;2.45;;
75548;SDS011;64133;56.002;37.208;2023-06-22T09:23:35;6.15;;;2.50;;
75548;SDS011;64133;56.002;37.208;2023-06-22T09:28:40;4.62;;;2.17;;
75548;SDS011;64133;56.002;37.208;2023-06-22T09:33:47;5.25;;;2.35;;
75548;SDS011;64133;56.002;37.208;2023-06-22T09:38:52;3.42;;;2.05;;
75548;SDS011;64133;56.002;37.208;2023-06-22T09:43:58;4.40;;;2.27;;
75548;SDS011;64133;56.002;37.208;2023-06-22T09:49:03;4.78;;;2.30;;
75548;SDS011;64133;56.002;37.208;2023-06-22T09:54:08;4.53;;;2.35;;
75548;SDS011;64133;56.002;37.208;2023-06-22T09:59:13;5.55;;;2.60;;
75548;SDS011;64133;56.002;37.208;2023-06-22T10:04:18;3.67;;;2.20;;
75548;SDS011;64133;56.002;37.208;2023-06-22T10:09:26;3.72;;;2.00;;
75548;SDS011;64133;56.002;37.208;2023-06-22T10:14:31;5.17;;;2.22;;
75548;SDS011;64133;56.002;37.208;2023-06-22T10:19:36;3.95;;;2.10;;
75548;SDS011;64133;56.002;37.208;2023-06-22T10:24:41;5.62;;;2.35;;
75548;SDS011;64133;56.002;37.208;2023-06-22T10:29:46;4.33;;;2.30;;
75548;SDS011;64133;56.002;37.208;2023-06-22T10:34:51;4.87;;;2.37;;
75548;SDS011;64133;56.002;37.208;2023-06-22T10:39:56;4.08;;;2.60;;
75548;SDS011;64133;56.002;37.208;2023-06-22T10:45:05;3.92;;;2.35;;
75548;SDS011;64133;56.002;37.208;2023-06-22T10:50:11;7.72;;;2.70;;
75548;SDS011;64133;56.002;37.208;2023-06-22T10:55:16;4.65;;;2.30;;
75548;SDS011;64133;56.002;37.208;2023-06-22T11:00:22;6.85;;;2.10;;
75548;SDS011;64133;56.002;37.208;2023-06-22T11:05:27;4.10;;;2.80;;
75548;SDS011;64133;56.002;37.208;2023-06-22T11:10:32;3.90;;;2.70;;
75548;SDS011;64133;56.002;37.208;2023-06-22T11:15:37;9.03;;;3.22;;
75548;SDS011;64133;56.002;37.208;2023-06-22T11:20:43;5.42;;;2.52;;
75548;SDS011;64133;56.002;37.208;2023-06-22T11:25:47;8.35;;;3.27;;
75548;SDS011;64133;56.002;37.208;2023-06-22T11:31:01;4.58;;;2.95;;
75548;SDS011;64133;56.002;37.208;2023-06-22T11:36:06;6.33;;;2.65;;
75548;SDS011;64133;56.002;37.208;2023-06-22T11:41:11;5.53;;;2.50;;
75548;SDS011;64133;56.002;37.208;2023-06-22T11:46:16;4.50;;;2.02;;
75548;SDS011;64133;56.002;37.208;2023-06-22T11:51:22;4.60;;;2.98;;
75548;SDS011;64133;56.002;37.208;2023-06-22T12:01:32;14.28;;;3.02;;
75548;SDS011;64133;56.002;37.208;2023-06-22T12:06:37;4.80;;;3.00;;
75548;SDS011;64133;56.002;37.208;2023-06-22T12:11:42;6.45;;;2.47;;
75548;SDS011;64133;56.002;37.208;2023-06-22T12:16:55;3.70;;;2.50;;
75548;SDS011;64133;56.002;37.208;2023-06-22T12:22:03;6.37;;;2.77;;
75548;SDS011;64133;56.002;37.208;2023-06-22T12:27:08;4.55;;;2.45;;
75548;SDS011;64133;56.002;37.208;2023-06-22T12:32:13;3.98;;;2.52;;
75548;SDS011;64133;56.002;37.208;2023-06-22T12:37:18;3.45;;;2.62;;
75548;SDS011;64133;56.002;37.208;2023-06-22T12:42:23;6.97;;;2.87;;
75548;SDS011;64133;56.002;37.208;2023-06-22T12:52:43;5.97;;;2.90;;
75548;SDS011;64133;56.002;37.208;2023-06-22T12:57:57;7.58;;;3.20;;
75548;SDS011;64133;56.002;37.208;2023-06-22T13:03:04;5.08;;;2.85;;
75548;SDS011;64133;56.002;37.208;2023-06-22T13:08:09;4.28;;;2.95;;
75548;SDS011;64133;56.002;37.208;2023-06-22T13:13:14;8.73;;;2.95;;
75548;SDS011;64133;56.002;37.208;2023-06-22T13:18:19;4.65;;;3.12;;
75548;SDS011;64133;56.002;37.208;2023-06-22T13:23:24;3.67;;;2.77;;
75548;SDS011;64133;56.002;37.208;2023-06-22T13:28:29;7.05;;;3.22;;
75548;SDS011;64133;56.002;37.208;2023-06-22T13:33:34;4.25;;;2.55;;
75548;SDS011;64133;56.002;37.208;2023-06-22T13:38:39;6.10;;;3.00;;
75548;SDS011;64133;56.002;37.208;2023-06-22T13:43:44;5.17;;;3.20;;
75548;SDS011;64133;56.002;37.208;2023-06-22T13:48:51;4.10;;;3.35;;
75548;SDS011;64133;56.002;37.208;2023-06-22T13:53:56;5.25;;;3.00;;
75548;SDS011;64133;56.002;37.208;2023-06-22T13:59:01;4.37;;;3.00;;
75548;SDS011;64133;56.002;37.208;2023-06-22T14:04:06;5.22;;;2.90;;
75548;SDS011;64133;56.002;37.208;2023-06-22T14:09:11;5.83;;;3.00;;
75548;SDS011;64133;56.002;37.208;2023-06-22T14:14:18;4.60;;;3.02;;
75548;SDS011;64133;56.002;37.208;2023-06-22T14:19:21;4.55;;;3.27;;
75548;SDS011;64133;56.002;37.208;2023-06-22T14:24:27;3.92;;;2.87;;
75548;SDS011;64133;56.002;37.208;2023-06-22T14:29:36;3.95;;;2.67;;
75548;SDS011;64133;56.002;37.208;2023-06-22T14:34:44;5.22;;;3.72;;
75548;SDS011;64133;56.002;37.208;2023-06-22T14:39:51;4.22;;;3.10;;
75548;SDS011;64133;56.002;37.208;2023-06-22T14:44:56;8.23;;;3.35;;
75548;SDS011;64133;56.002;37.208;2023-06-22T14:50:02;6.47;;;3.52;;
75548;SDS011;64133;56.002;37.208;2023-06-22T14:55:08;7.03;;;2.92;;
75548;SDS011;64133;56.002;37.208;2023-06-22T15:00:14;6.30;;;3.45;;
75548;SDS011;64133;56.002;37.208;2023-06-22T15:10:26;6.83;;;3.22;;
75548;SDS011;64133;56.002;37.208;2023-06-22T15:15:32;4.47;;;3.12;;
75548;SDS011;64133;56.002;37.208;2023-06-22T15:20:37;4.60;;;2.75;;
75548;SDS011;64133;56.002;37.208;2023-06-22T15:25:42;9.00;;;3.25;;
75548;SDS011;64133;56.002;37.208;2023-06-22T15:30:48;9.83;;;3.52;;
75548;SDS011;64133;56.002;37.208;2023-06-22T15:41:07;4.97;;;2.60;;
75548;SDS011;64133;56.002;37.208;2023-06-22T15:46:12;5.45;;;2.58;;
75548;SDS011;64133;56.002;37.208;2023-06-22T15:51:17;3.25;;;2.45;;
75548;SDS011;64133;56.002;37.208;2023-06-22T15:56:22;5.40;;;2.90;;
75548;SDS011;64133;56.002;37.208;2023-06-22T16:01:27;3.92;;;2.42;;
75548;SDS011;64133;56.002;37.208;2023-06-22T16:06:32;4.80;;;2.70;;
75548;SDS011;64133;56.002;37.208;2023-06-22T16:11:37;4.17;;;2.55;;
75548;SDS011;64133;56.002;37.208;2023-06-22T16:16:42;6.22;;;2.67;;
75548;SDS011;64133;56.002;37.208;2023-06-22T16:21:47;5.50;;;2.98;;
75548;SDS011;64133;56.002;37.208;2023-06-22T16:26:52;4.75;;;2.35;;
75548;SDS011;64133;56.002;37.208;2023-06-22T16:31:57;6.92;;;3.00;;
75548;SDS011;64133;56.002;37.208;2023-06-22T16:37:02;5.30;;;2.60;;
75548;SDS011;64133;56.002;37.208;2023-06-22T16:42:08;5.28;;;3.33;;
75548;SDS011;64133;56.002;37.208;2023-06-22T16:52:27;6.92;;;4.20;;
75548;SDS011;64133;56.002;37.208;2023-06-22T16:57:32;10.65;;;3.70;;
75548;SDS011;64133;56.002;37.208;2023-06-22T17:02:42;7.58;;;3.02;;
75548;SDS011;64133;56.002;37.208;2023-06-22T17:07:48;7.87;;;4.62;;
75548;SDS011;64133;56.002;37.208;2023-06-22T17:12:53;7.10;;;3.75;;
75548;SDS011;64133;56.002;37.208;2023-06-22T17:17:58;6.75;;;2.42;;
75548;SDS011;64133;56.002;37.208;2023-06-22T17:23:03;7.15;;;2.83;;
75548;SDS011;64133;56.002;37.208;2023-06-22T17:33:30;5.42;;;2.95;;
75548;SDS011;64133;56.002;37.208;2023-06-22T17:38:34;4.42;;;2.58;;
75548;SDS011;64133;56.002;37.208;2023-06-22T17:43:45;6.20;;;2.80;;
75548;SDS011;64133;56.002;37.208;2023-06-22T17:48:50;5.37;;;3.47;;
75548;SDS011;64133;56.002;37.208;2023-06-22T17:53:57;7.00;;;2.45;;
75548;SDS011;64133;56.002;37.208;2023-06-22T17:59:02;7.17;;;2.60;;
75548;SDS011;64133;56.002;37.208;2023-06-22T18:04:15;4.42;;;2.72;;
75548;SDS011;64133;56.002;37.208;2023-06-22T18:09:29;5.17;;;2.80;;
75548;SDS011;64133;56.002;37.208;2023-06-22T18:14:34;8.18;;;2.40;;
75548;SDS011;64133;56.002;37.208;2023-06-22T18:19:39;4.58;;;2.67;;
75548;SDS011;64133;56.002;37.208;2023-06-22T18:24:44;5.30;;;2.47;;
75548;SDS011;64133;56.002;37.208;2023-06-22T18:34:56;4.47;;;2.20;;
75548;SDS011;64133;56.002;37.208;2023-06-22T18:40:01;6.95;;;2.40;;
75548;SDS011;64133;56.002;37.208;2023-06-22T18:45:22;6.17;;;2.55;;
75548;SDS011;64133;56.002;37.208;2023-06-22T18:50:37;6.45;;;2.52;;
75548;SDS011;64133;56.002;37.208;2023-06-22T18:55:42;5.12;;;2.02;;
75548;SDS011;64133;56.002;37.208;2023-06-22T19:00:47;6.40;;;1.95;;
75548;SDS011;64133;56.002;37.208;2023-06-22T19:05:55;5.17;;;2.80;;
75548;SDS011;64133;56.002;37.208;2023-06-22T19:11:11;6.70;;;2.90;;
75548;SDS011;64133;56.002;37.208;2023-06-22T19:16:16;7.65;;;2.52;;
75548;SDS011;64133;56.002;37.208;2023-06-22T19:21:21;4.30;;;1.95;;
75548;SDS011;64133;56.002;37.208;2023-06-22T19:26:26;9.35;;;2.42;;
75548;SDS011;64133;56.002;37.208;2023-06-22T19:31:31;5.00;;;2.10;;
75548;SDS011;64133;56.002;37.208;2023-06-22T19:36:36;14.87;;;2.45;;
75548;SDS011;64133;56.002;37.208;2023-06-22T19:41:41;4.67;;;2.50;;
75548;SDS011;64133;56.002;37.208;2023-06-22T19:46:49;4.22;;;2.25;;
75548;SDS011;64133;56.002;37.208;2023-06-22T19:51:54;6.28;;;2.25;;
75548;SDS011;64133;56.002;37.208;2023-06-22T19:57:02;7.50;;;2.40;;
75548;SDS011;64133;56.002;37.208;2023-06-22T20:02:08;3.05;;;2.15;;
75548;SDS011;64133;56.002;37.208;2023-06-22T20:07:12;4.22;;;2.52;;
75548;SDS011;64133;56.002;37.208;2023-06-22T20:12:23;6.15;;;2.70;;
75548;SDS011;64133;56.002;37.208;2023-06-22T20:17:28;3.90;;;2.12;;
75548;SDS011;64133;56.002;37.208;2023-06-22T20:22:33;6.25;;;2.20;;
75548;SDS011;64133;56.002;37.208;2023-06-22T20:27:45;6.80;;;2.50;;
75548;SDS011;64133;56.002;37.208;2023-06-22T20:32:51;5.00;;;2.35;;
75548;SDS011;64133;56.002;37.208;2023-06-22T20:37:55;4.15;;;2.17;;
75548;SDS011;64133;56.002;37.208;2023-06-22T20:43:00;3.15;;;2.02;;
75548;SDS011;64133;56.002;37.208;2023-06-22T20:48:08;4.70;;;1.95;;
75548;SDS011;64133;56.002;37.208;2023-06-22T20:53:12;5.20;;;2.70;;
75548;SDS011;64133;56.002;37.208;2023-06-22T20:58:17;3.33;;;2.10;;
75548;SDS011;64133;56.002;37.208;2023-06-22T21:03:22;6.72;;;2.55;;
75548;SDS011;64133;56.002;37.208;2023-06-22T21:08:27;3.87;;;1.67;;
75548;SDS011;64133;56.002;37.208;2023-06-22T21:13:32;3.58;;;2.20;;
75548;SDS011;64133;56.002;37.208;2023-06-22T21:18:37;5.37;;;1.85;;
75548;SDS011;64133;56.002;37.208;2023-06-22T21:23:42;8.15;;;2.40;;
75548;SDS011;64133;56.002;37.208;2023-06-22T21:28:47;3.98;;;1.82;;
75548;SDS011;64133;56.002;37.208;2023-06-22T21:33:52;4.90;;;2.52;;
75548;SDS011;64133;56.002;37.208;2023-06-22T21:38:57;3.70;;;2.12;;
75548;SDS011;64133;56.002;37.208;2023-06-22T21:44:02;6.35;;;2.58;;
75548;SDS011;64133;56.002;37.208;2023-06-22T21:49:07;4.58;;;1.98;;
75548;SDS011;64133;56.002;37.208;2023-06-22T21:54:12;4.35;;;2.10;;
75548;SDS011;64133;56.002;37.208;2023-06-22T21:59:17;4.40;;;1.87;;
75548;SDS011;64133;56.002;37.208;2023-06-22T22:04:22;7.87;;;2.12;;
75548;SDS011;64133;56.002;37.208;2023-06-22T22:09:27;4.62;;;2.35;;
75548;SDS011;64133;56.002;37.208;2023-06-22T22:14:33;6.58;;;2.77;;
75548;SDS011;64133;56.002;37.208;2023-06-22T22:19:40;4.80;;;2.22;;
75548;SDS011;64133;56.002;37.208;2023-06-22T22:24:46;3.62;;;2.42;;
75548;SDS011;64133;56.002;37.208;2023-06-22T22:29:51;4.20;;;2.05;;
75548;SDS011;64133;56.002;37.208;2023-06-22T22:34:55;5.28;;;2.27;;
75548;SDS011;64133;56.002;37.208;2023-06-22T22:40:00;4.25;;;2.30;;
75548;SDS011;64133;56.002;37.208;2023-06-22T22:45:06;6.17;;;2.52;;
75548;SDS011;64133;56.002;37.208;2023-06-22T22:50:12;3.58;;;1.92;;
75548;SDS011;64133;56.002;37.208;2023-06-22T22:55:17;5.92;;;2.00;;
75548;SDS011;64133;56.002;37.208;2023-06-22T23:00:22;4.95;;;2.00;;
75548;SDS011;64133;56.002;37.208;2023-06-22T23:05:29;6.15;;;1.55;;
75548;SDS011;64133;56.002;37.208;2023-06-22T23:10:46;3.52;;;2.02;;
75548;SDS011;64133;56.002;37.208;2023-06-22T23:15:53;5.53;;;1.80;;
75548;SDS011;64133;56.002;37.208;2023-06-22T23:20:58;4.42;;;1.82;;
75548;SDS011;64133;56.002;37.208;2023-06-22T23:26:02;4.90;;;2.52;;
75548;SDS011;64133;56.002;37.208;2023-06-22T23:31:08;6.87;;;2.70;;
75548;SDS011;64133;56.002;37.208;2023-06-22T23:36:13;7.65;;;3.00;;
75548;SDS011;64133;56.002;37.208;2023-06-22T23:41:18;5.92;;;2.50;;
75548;SDS011;64133;56.002;37.208;2023-06-22T23:46:23;8.43;;;3.62;;
75548;SDS011;64133;56.002;37.208;2023-06-22T23:51:28;6.35;;;3.33;;
75548;SDS011;64133;56.002;37.208;2023-06-22T23:56:33;8.10;;;3.10;;
